createdAt,value
2023-03-29T00:01:01.418Z,91171.53
2023-03-29T00:03:28.276Z,91178.53
2023-03-29T00:06:03.005Z,91177.59
2023-03-29T00:08:31.627Z,91168.72
2023-03-29T00:10:59.480Z,91178.16
2023-03-29T00:13:27.017Z,91179.03
2023-03-29T00:15:53.999Z,91172.84
2023-03-29T00:18:20.664Z,91192.06
2023-03-29T00:20:53.915Z,91186.47
2023-03-29T00:23:20.401Z,91193.63
2023-03-29T00:25:47.046Z,91187.50
2023-03-29T00:28:14.829Z,91178.22
2023-03-29T00:30:41.492Z,91176.41
2023-03-29T00:33:08.695Z,91184.88
2023-03-29T00:35:37.805Z,91199.41
2023-03-29T00:38:06.249Z,91202.59
2023-03-29T00:40:33.285Z,91207.91
2023-03-29T00:43:00.619Z,91218.84
2023-03-29T00:45:30.508Z,91228.69
2023-03-29T00:48:00.385Z,91214.41
2023-03-29T00:50:32.370Z,91213.38
2023-03-29T00:53:05.029Z,91218.59
2023-03-29T00:55:34.274Z,91215.59
2023-03-29T00:58:01.384Z,91233.69
2023-03-29T01:00:31.876Z,91210.66
2023-03-29T01:02:59.846Z,91227.47
2023-03-29T01:05:31.009Z,91222.72
2023-03-29T01:07:58.319Z,91241.19
2023-03-29T01:10:33.259Z,91256.19
2023-03-29T01:13:21.878Z,91251.34
2023-03-29T01:15:48.593Z,91257.22
2023-03-29T01:18:15.170Z,91256.06
2023-03-29T01:20:51.002Z,91276.31
2023-03-29T01:23:27.076Z,91270.28
2023-03-29T01:26:00.263Z,91271.72
2023-03-29T01:28:28.598Z,91280.13
2023-03-29T01:31:08.594Z,91258.41
2023-03-29T01:33:40.365Z,91274.28
2023-03-29T01:36:16.680Z,91263.75
2023-03-29T01:38:47.700Z,91267.19
2023-03-29T01:41:14.490Z,91262.53
2023-03-29T01:43:46.274Z,91273.56
2023-03-29T01:46:20.963Z,91265.03
2023-03-29T01:48:54.383Z,91268.53
2023-03-29T01:51:42.394Z,91291.69
2023-03-29T01:54:11.948Z,91289.88
2023-03-29T01:56:40.514Z,91287.03
2023-03-29T01:59:13.391Z,91299.03
2023-03-29T02:01:42.449Z,91313.91
2023-03-29T02:04:14.431Z,91312.00
2023-03-29T02:06:41.580Z,91315.44
2023-03-29T02:09:08.477Z,91323.34
2023-03-29T02:11:36.122Z,91316.47
2023-03-29T02:14:03.517Z,91323.06
2023-03-29T02:16:34.718Z,91332.97
2023-03-29T02:19:01.673Z,91332.97
2023-03-29T02:21:40.645Z,91336.41
2023-03-29T02:24:10.082Z,91338.13
2023-03-29T02:26:36.826Z,91342.38
2023-03-29T02:29:03.455Z,91338.78
2023-03-29T02:31:34.792Z,91338.03
2023-03-29T02:34:04.896Z,91351.06
2023-03-29T02:36:34.334Z,91345.53
2023-03-29T02:39:04.035Z,91356.69
2023-03-29T02:41:31.019Z,91357.72
2023-03-29T02:43:58.894Z,91362.78
2023-03-29T02:46:25.983Z,91356.97
2023-03-29T02:48:54.474Z,91362.88
2023-03-29T02:51:29.130Z,91354.56
2023-03-29T02:53:59.335Z,91358.13
2023-03-29T02:56:25.973Z,91349.72
2023-03-29T02:58:52.589Z,91351.34
2023-03-29T03:01:20.516Z,91358.00
2023-03-29T03:03:48.122Z,91357.53
2023-03-29T03:06:15.415Z,91347.63
2023-03-29T03:08:42.181Z,91349.81
2023-03-29T03:11:08.748Z,91355.34
2023-03-29T03:13:35.420Z,91345.72
2023-03-29T03:16:01.926Z,91354.03
2023-03-29T03:18:28.768Z,91356.41
2023-03-29T03:20:56.109Z,91363.25
2023-03-29T03:23:23.022Z,91371.84
2023-03-29T03:25:49.606Z,91360.31
2023-03-29T03:28:16.725Z,91365.53
2023-03-29T03:30:43.853Z,91358.31
2023-03-29T03:33:11.575Z,91370.59
2023-03-29T03:35:39.187Z,91380.78
2023-03-29T03:38:06.064Z,91373.06
2023-03-29T03:40:33.382Z,91378.78
2023-03-29T03:42:59.962Z,91380.78
2023-03-29T03:45:26.587Z,91375.13
2023-03-29T03:47:53.288Z,91385.13
2023-03-29T03:50:19.973Z,91393.81
2023-03-29T03:52:46.620Z,91388.09
2023-03-29T03:55:13.248Z,91388.91
2023-03-29T03:57:39.925Z,91385.81
2023-03-29T04:00:27.336Z,91389.50
2023-03-29T04:02:56.895Z,91397.50
2023-03-29T04:05:23.549Z,91392.38
2023-03-29T04:07:50.378Z,91399.19
2023-03-29T04:10:17.489Z,91390.09
2023-03-29T04:12:44.084Z,91407.97
2023-03-29T04:15:10.760Z,91411.78
2023-03-29T04:17:37.657Z,91389.88
2023-03-29T04:20:10.385Z,91371.81
2023-03-29T04:22:37.010Z,91401.34
2023-03-29T04:25:03.634Z,91403.13
2023-03-29T04:27:30.406Z,91398.84
2023-03-29T04:29:57.094Z,91404.94
2023-03-29T04:32:23.733Z,91410.53
2023-03-29T04:34:50.278Z,91398.09
2023-03-29T04:37:22.195Z,91408.56
2023-03-29T04:39:50.354Z,91426.47
2023-03-29T04:42:17.886Z,91422.88
2023-03-29T04:44:44.713Z,91420.59
2023-03-29T04:47:14.235Z,91436.72
2023-03-29T04:49:41.038Z,91422.09
2023-03-29T04:52:08.138Z,91438.69
2023-03-29T04:54:34.756Z,91431.28
2023-03-29T04:57:01.373Z,91443.19
2023-03-29T04:59:27.971Z,91437.34
2023-03-29T05:01:54.797Z,91461.00
2023-03-29T05:04:21.402Z,91438.63
2023-03-29T05:06:49.127Z,91444.81
2023-03-29T05:09:16.414Z,91454.38
2023-03-29T05:11:44.358Z,91459.50
2023-03-29T05:14:10.893Z,91462.25
2023-03-29T05:16:38.143Z,91459.38
2023-03-29T05:19:04.881Z,91462.53
2023-03-29T05:21:31.434Z,91460.75
2023-03-29T05:23:58.140Z,91459.03
2023-03-29T05:26:25.623Z,91461.22
2023-03-29T05:28:52.434Z,91455.41
2023-03-29T05:31:20.006Z,91460.19
2023-03-29T05:33:50.065Z,91448.16
2023-03-29T05:36:17.643Z,91455.69
2023-03-29T05:38:47.261Z,91448.78
2023-03-29T05:41:14.879Z,91414.16
2023-03-29T05:43:41.960Z,91462.69
2023-03-29T05:46:08.988Z,91461.41
2023-03-29T05:48:36.198Z,91463.75
2023-03-29T05:51:03.717Z,91469.94
2023-03-29T05:53:30.535Z,91463.81
2023-03-29T05:55:57.326Z,91474.19
2023-03-29T05:58:26.603Z,91471.38
2023-03-29T06:00:53.483Z,91464.81
2023-03-29T06:03:22.164Z,91470.66
2023-03-29T06:05:49.968Z,91474.44
2023-03-29T06:08:17.045Z,91477.03
2023-03-29T06:10:43.870Z,91474.50
2023-03-29T06:13:11.004Z,91476.84
2023-03-29T06:15:37.737Z,91476.00
2023-03-29T06:18:04.740Z,91479.72
2023-03-29T06:20:31.488Z,91489.31
2023-03-29T06:22:58.523Z,91477.13
2023-03-29T06:25:25.142Z,91483.91
2023-03-29T06:27:52.319Z,91486.22
2023-03-29T06:30:19.725Z,91489.97
2023-03-29T06:32:46.507Z,91497.50
2023-03-29T06:35:13.190Z,91494.94
2023-03-29T06:37:41.693Z,91496.63
2023-03-29T06:40:09.564Z,91499.72
2023-03-29T06:42:36.221Z,91500.56
2023-03-29T06:45:03.217Z,91491.66
2023-03-29T06:47:31.694Z,91492.78
2023-03-29T06:49:58.301Z,91498.53
2023-03-29T06:52:24.919Z,91507.91
2023-03-29T06:54:52.874Z,91504.19
2023-03-29T06:57:19.562Z,91508.53
2023-03-29T06:59:47.505Z,91507.16
2023-03-29T07:02:14.453Z,91501.91
2023-03-29T07:04:42.689Z,91504.53
2023-03-29T07:07:20.153Z,91506.53
2023-03-29T07:09:53.978Z,91499.69
2023-03-29T07:12:24.351Z,91514.59
2023-03-29T07:14:50.966Z,91525.72
2023-03-29T07:17:18.530Z,91534.63
2023-03-29T07:19:45.323Z,91524.81
2023-03-29T07:22:11.965Z,91509.03
2023-03-29T07:24:38.561Z,91537.41
2023-03-29T07:27:05.238Z,91529.53
2023-03-29T07:29:32.602Z,91538.13
2023-03-29T07:31:59.251Z,91521.38
2023-03-29T07:34:25.962Z,91532.94
2023-03-29T07:36:52.685Z,91541.81
2023-03-29T07:39:19.314Z,91528.94
2023-03-29T07:41:46.143Z,91526.25
2023-03-29T07:44:12.781Z,91516.91
2023-03-29T07:46:39.597Z,91513.28
2023-03-29T07:49:08.267Z,91526.66
2023-03-29T07:51:36.685Z,91532.06
2023-03-29T07:54:03.363Z,91521.81
2023-03-29T07:56:30.459Z,91539.88
2023-03-29T07:58:57.364Z,91528.00
2023-03-29T08:01:24.881Z,91537.44
2023-03-29T08:03:52.434Z,91532.03
2023-03-29T08:06:19.185Z,91529.09
2023-03-29T08:08:47.334Z,91542.66
2023-03-29T08:11:14.285Z,91544.75
2023-03-29T08:13:40.961Z,91557.78
2023-03-29T08:16:08.933Z,91552.09
2023-03-29T08:18:35.607Z,91542.84
2023-03-29T08:21:02.411Z,91526.97
2023-03-29T08:23:29.280Z,91544.13
2023-03-29T08:25:55.949Z,91538.94
2023-03-29T08:28:23.350Z,91535.09
2023-03-29T08:30:49.949Z,91529.53
2023-03-29T08:33:17.129Z,91523.84
2023-03-29T08:35:44.027Z,91527.94
2023-03-29T08:38:11.288Z,91534.59
2023-03-29T08:40:38.042Z,91522.78
2023-03-29T08:43:04.581Z,91534.47
2023-03-29T08:45:32.126Z,91525.97
2023-03-29T08:47:58.795Z,91528.31
2023-03-29T08:50:46.233Z,91519.75
2023-03-29T08:53:33.937Z,91535.19
2023-03-29T08:56:02.539Z,91530.44
2023-03-29T08:58:31.547Z,91542.22
2023-03-29T09:00:59.421Z,91541.66
2023-03-29T09:03:32.085Z,91522.53
2023-03-29T09:06:02.187Z,91533.25
2023-03-29T09:08:28.795Z,91513.69
2023-03-29T09:11:14.294Z,91523.09
2023-03-29T09:13:59.546Z,91540.25
2023-03-29T09:16:32.289Z,91541.44
2023-03-29T09:19:27.973Z,91532.69
2023-03-29T09:22:00.823Z,91538.22
2023-03-29T09:24:27.301Z,91543.25
2023-03-29T09:27:08.751Z,91540.59
2023-03-29T09:29:55.605Z,91521.34
2023-03-29T09:32:23.308Z,91525.00
2023-03-29T09:34:55.173Z,91534.34
2023-03-29T09:37:25.885Z,91527.44
2023-03-29T09:39:53.282Z,91533.06
2023-03-29T09:42:20.854Z,91531.63
2023-03-29T09:44:50.512Z,91534.50
2023-03-29T09:47:33.020Z,91522.88
2023-03-29T09:50:02.981Z,91533.66
2023-03-29T09:52:29.575Z,91543.63
2023-03-29T09:54:56.172Z,91536.78
2023-03-29T09:57:23.006Z,91532.34
2023-03-29T09:59:50.804Z,91527.88
2023-03-29T10:02:19.266Z,91528.63
2023-03-29T10:04:45.830Z,91518.09
2023-03-29T10:07:18.158Z,91521.31
2023-03-29T10:09:45.975Z,91517.94
2023-03-29T10:12:13.512Z,91527.59
2023-03-29T10:14:46.162Z,91521.84
2023-03-29T10:17:21.895Z,91510.66
2023-03-29T10:19:58.731Z,91505.47
2023-03-29T10:22:25.611Z,91527.84
2023-03-29T10:24:53.314Z,91528.16
2023-03-29T10:27:22.361Z,91513.41
2023-03-29T10:29:49.857Z,91532.63
2023-03-29T10:32:23.118Z,91524.50
2023-03-29T10:34:51.205Z,91532.22
2023-03-29T10:37:19.630Z,91534.94
2023-03-29T10:39:47.356Z,91520.34
2023-03-29T10:42:15.610Z,91511.94
2023-03-29T10:44:42.273Z,91511.69
2023-03-29T10:47:09.989Z,91520.47
2023-03-29T10:49:41.133Z,91518.25
2023-03-29T10:52:08.630Z,91529.63
2023-03-29T10:54:36.218Z,91516.66
2023-03-29T10:57:05.272Z,91516.66
2023-03-29T10:59:37.785Z,91511.31
2023-03-29T11:02:13.314Z,91517.53
2023-03-29T11:04:59.278Z,91507.88
2023-03-29T11:07:48.888Z,91499.91
2023-03-29T11:10:28.519Z,91503.88
2023-03-29T11:13:10.631Z,91486.56
2023-03-29T11:15:37.544Z,91506.97
2023-03-29T11:18:22.316Z,91501.63
2023-03-29T11:20:55.364Z,91503.59
2023-03-29T11:23:30.057Z,91487.28
2023-03-29T11:26:27.258Z,91485.03
2023-03-29T11:29:00.355Z,91478.16
2023-03-29T11:31:46.610Z,91489.00
2023-03-29T11:34:23.424Z,91474.09
2023-03-29T11:36:55.222Z,91491.00
2023-03-29T11:39:41.074Z,91486.16
2023-03-29T11:42:12.501Z,91443.00
2023-03-29T11:44:40.859Z,91478.28
2023-03-29T11:47:17.303Z,91476.53
2023-03-29T11:49:49.308Z,91472.09
2023-03-29T11:52:22.536Z,91467.47
2023-03-29T11:54:49.122Z,91484.38
2023-03-29T11:57:15.937Z,91464.44
2023-03-29T11:59:48.739Z,91467.28
2023-03-29T12:02:34.107Z,91449.41
2023-03-29T12:05:04.021Z,91459.00
2023-03-29T12:07:40.164Z,91462.41
2023-03-29T12:10:09.469Z,91460.03
2023-03-29T12:13:05.948Z,91455.22
2023-03-29T12:15:39.685Z,91465.13
2023-03-29T12:18:21.668Z,91456.53
2023-03-29T12:20:59.681Z,91477.53
2023-03-29T12:23:29.798Z,91444.59
2023-03-29T12:25:59.179Z,91476.09
2023-03-29T12:28:46.929Z,91473.03
2023-03-29T12:31:22.242Z,91469.03
2023-03-29T12:33:48.846Z,91461.53
2023-03-29T12:36:18.459Z,91461.53
2023-03-29T12:38:45.391Z,91467.16
2023-03-29T12:41:18.171Z,91471.81
2023-03-29T12:43:45.842Z,91460.63
2023-03-29T12:46:21.726Z,91453.09
2023-03-29T12:48:51.086Z,91463.16
2023-03-29T12:51:19.739Z,91491.31
2023-03-29T12:53:47.432Z,91460.09
2023-03-29T12:56:19.564Z,91478.66
2023-03-29T12:58:49.190Z,91474.66
2023-03-29T13:01:29.656Z,91479.03
2023-03-29T13:04:14.902Z,91464.47
2023-03-29T13:06:47.537Z,91501.47
2023-03-29T13:09:23.257Z,91484.91
2023-03-29T13:11:53.557Z,91481.34
2023-03-29T13:14:21.813Z,91470.31
2023-03-29T13:16:48.522Z,91481.13
2023-03-29T13:19:33.897Z,91487.38
2023-03-29T13:22:10.079Z,91475.81
2023-03-29T13:24:55.549Z,91482.56
2023-03-29T13:27:32.070Z,91488.91
2023-03-29T13:30:17.563Z,91493.81
2023-03-29T13:32:50.681Z,91464.34
2023-03-29T13:35:22.756Z,91477.03
2023-03-29T13:37:57.793Z,91477.50
2023-03-29T13:40:30.407Z,91481.47
2023-03-29T13:43:11.030Z,91505.72
2023-03-29T13:45:38.966Z,91493.16
2023-03-29T13:48:22.533Z,91497.28
2023-03-29T13:50:54.421Z,91474.81
2023-03-29T13:53:31.044Z,91481.88
2023-03-29T13:55:58.339Z,91482.78
2023-03-29T13:58:26.014Z,91509.44
2023-03-29T14:00:55.617Z,91493.78
2023-03-29T14:03:29.663Z,91513.81
2023-03-29T14:06:00.836Z,91492.78
2023-03-29T14:08:30.553Z,91485.75
2023-03-29T14:11:00.741Z,91489.66
2023-03-29T14:13:28.715Z,91490.44
2023-03-29T14:15:57.299Z,91495.38
2023-03-29T14:18:25.890Z,91493.88
2023-03-29T14:20:55.229Z,91499.66
2023-03-29T14:23:23.680Z,91510.03
2023-03-29T14:25:50.237Z,91493.31
2023-03-29T14:28:24.038Z,91511.34
2023-03-29T14:30:52.810Z,91500.59
2023-03-29T14:33:48.540Z,91509.97
2023-03-29T14:36:17.983Z,91490.84
2023-03-29T14:38:47.647Z,91506.03
2023-03-29T14:41:14.393Z,91512.44
2023-03-29T14:43:41.220Z,91509.56
2023-03-29T14:46:08.195Z,91512.72
2023-03-29T14:48:36.167Z,91512.44
2023-03-29T14:51:03.092Z,91514.00
2023-03-29T14:53:31.954Z,91501.22
2023-03-29T14:55:59.339Z,91519.72
2023-03-29T14:58:31.837Z,91517.22
2023-03-29T15:01:04.196Z,91514.53
2023-03-29T15:03:32.073Z,91519.38
2023-03-29T15:06:04.405Z,91530.06
2023-03-29T15:08:37.801Z,91524.75
2023-03-29T15:11:12.977Z,91505.50
2023-03-29T15:13:40.460Z,91538.06
2023-03-29T15:16:08.361Z,91551.84
2023-03-29T15:18:39.929Z,91534.28
2023-03-29T15:21:07.225Z,91532.56
2023-03-29T15:24:00.130Z,91550.53
2023-03-29T15:26:34.170Z,91557.34
2023-03-29T15:29:14.769Z,91554.03
2023-03-29T15:31:53.589Z,91553.53
2023-03-29T15:34:27.601Z,91562.13
2023-03-29T15:36:54.358Z,91555.56
2023-03-29T15:39:21.002Z,91561.00
2023-03-29T15:41:49.293Z,91565.97
2023-03-29T15:44:17.627Z,91565.22
2023-03-29T15:46:44.224Z,91568.47
2023-03-29T15:49:11.585Z,91563.69
2023-03-29T15:51:38.198Z,91571.09
2023-03-29T15:54:05.066Z,91557.00
2023-03-29T15:56:32.689Z,91574.94
2023-03-29T15:58:59.223Z,91564.50
2023-03-29T16:01:33.602Z,91573.06
2023-03-29T16:04:01.282Z,91591.88
2023-03-29T16:06:27.828Z,91576.84
2023-03-29T16:08:57.137Z,91580.34
2023-03-29T16:11:24.101Z,91582.41
2023-03-29T16:13:51.013Z,91585.31
2023-03-29T16:16:17.591Z,91590.09
2023-03-29T16:18:44.224Z,91593.16
2023-03-29T16:21:13.379Z,91584.91
2023-03-29T16:23:40.725Z,91596.63
2023-03-29T16:26:07.750Z,91589.91
2023-03-29T16:28:34.314Z,91606.94
2023-03-29T16:31:00.845Z,91611.03
2023-03-29T16:33:27.513Z,91600.94
2023-03-29T16:35:54.040Z,91603.94
2023-03-29T16:38:21.764Z,91603.94
2023-03-29T16:40:48.658Z,91600.06
2023-03-29T16:43:16.130Z,91608.16
2023-03-29T16:45:42.724Z,91604.78
2023-03-29T16:48:17.383Z,91609.75
2023-03-29T16:50:44.512Z,91623.84
2023-03-29T16:53:11.332Z,91621.75
2023-03-29T16:55:38.211Z,91626.22
2023-03-29T16:58:05.988Z,91624.22
2023-03-29T17:00:33.290Z,91619.69
2023-03-29T17:03:02.950Z,91624.44
2023-03-29T17:05:30.139Z,91632.53
2023-03-29T17:07:56.716Z,91633.06
2023-03-29T17:10:23.485Z,91634.34
2023-03-29T17:12:49.996Z,91643.88
2023-03-29T17:15:17.621Z,91643.09
2023-03-29T17:17:44.226Z,91651.69
2023-03-29T17:20:12.350Z,91648.56
2023-03-29T17:22:39.270Z,91651.50
2023-03-29T17:25:07.331Z,91657.66
2023-03-29T17:27:34.850Z,91664.88
2023-03-29T17:30:01.851Z,91664.03
2023-03-29T17:32:28.673Z,91670.16
2023-03-29T17:34:55.270Z,91675.38
2023-03-29T17:37:22.817Z,91675.69
2023-03-29T17:39:49.460Z,91672.94
2023-03-29T17:42:17.376Z,91680.28
2023-03-29T17:44:44.124Z,91665.53
2023-03-29T17:47:10.610Z,91690.13
2023-03-29T17:49:37.170Z,91692.41
2023-03-29T17:52:03.854Z,91708.75
2023-03-29T17:54:30.612Z,91702.66
2023-03-29T17:56:57.351Z,91701.78
2023-03-29T17:59:24.078Z,91706.56
2023-03-29T18:01:51.382Z,91721.38
2023-03-29T18:04:18.045Z,91719.56
2023-03-29T18:06:45.750Z,91697.16
2023-03-29T18:09:12.857Z,91722.63
2023-03-29T18:11:39.487Z,91722.94
2023-03-29T18:14:06.092Z,91721.16
2023-03-29T18:16:32.757Z,91729.22
2023-03-29T18:18:59.353Z,91737.00
2023-03-29T18:21:27.058Z,91731.97
2023-03-29T18:23:56.224Z,91733.03
2023-03-29T18:26:23.569Z,91740.66
2023-03-29T18:28:50.974Z,91738.16
2023-03-29T18:31:19.966Z,91746.38
2023-03-29T18:33:46.980Z,91752.28
2023-03-29T18:36:14.156Z,91754.53
2023-03-29T18:38:43.275Z,91757.84
2023-03-29T18:41:12.224Z,91760.06
2023-03-29T18:43:39.879Z,91758.34
2023-03-29T18:46:07.844Z,91755.88
2023-03-29T18:48:39.057Z,91750.19
2023-03-29T18:51:07.518Z,91756.16
2023-03-29T18:53:38.831Z,91765.13
2023-03-29T18:56:06.733Z,91764.78
2023-03-29T18:58:33.577Z,91761.69
2023-03-29T19:01:04.335Z,91767.78
2023-03-29T19:03:32.482Z,91766.34
2023-03-29T19:05:59.164Z,91763.19
2023-03-29T19:08:26.335Z,91775.16
2023-03-29T19:10:53.195Z,91775.22
2023-03-29T19:13:19.846Z,91768.41
2023-03-29T19:15:47.622Z,91776.84
2023-03-29T19:18:14.289Z,91786.50
2023-03-29T19:20:40.863Z,91779.28
2023-03-29T19:23:07.451Z,91780.28
2023-03-29T19:25:34.181Z,91779.22
2023-03-29T19:28:00.816Z,91780.41
2023-03-29T19:30:27.337Z,91779.06
2023-03-29T19:32:53.934Z,91784.53
2023-03-29T19:35:20.607Z,91785.94
2023-03-29T19:37:47.212Z,91786.34
2023-03-29T19:40:14.477Z,91795.78
2023-03-29T19:42:41.208Z,91785.84
2023-03-29T19:45:09.477Z,91790.16
2023-03-29T19:47:37.304Z,91789.13
2023-03-29T19:50:04.806Z,91783.56
2023-03-29T19:52:31.419Z,91780.91
2023-03-29T19:55:00.910Z,91776.28
2023-03-29T19:57:33.639Z,91774.38
2023-03-29T20:00:01.635Z,91787.06
2023-03-29T20:02:28.257Z,91780.31
2023-03-29T20:04:55.148Z,91794.47
2023-03-29T20:07:21.740Z,91786.81
2023-03-29T20:09:49.785Z,91793.34
2023-03-29T20:12:16.291Z,91791.41
2023-03-29T20:14:43.419Z,91781.09
2023-03-29T20:17:10.118Z,91781.09
2023-03-29T20:19:36.812Z,91791.59
2023-03-29T20:22:04.198Z,91789.88
2023-03-29T20:24:32.644Z,91790.44
2023-03-29T20:26:59.293Z,91792.19
2023-03-29T20:29:26.069Z,91775.63
2023-03-29T20:31:52.814Z,91786.44
2023-03-29T20:34:19.377Z,91790.75
2023-03-29T20:36:46.815Z,91784.34
2023-03-29T20:39:17.671Z,91786.69
2023-03-29T20:41:47.790Z,91780.63
2023-03-29T20:44:16.935Z,91781.31
2023-03-29T20:46:54.626Z,91785.22
2023-03-29T20:49:26.527Z,91778.44
2023-03-29T20:51:58.605Z,91779.88
2023-03-29T20:54:25.998Z,91780.53
2023-03-29T20:56:54.595Z,91783.19
2023-03-29T20:59:22.695Z,91783.78
2023-03-29T21:01:50.309Z,91778.97
2023-03-29T21:04:17.694Z,91777.47
2023-03-29T21:06:45.724Z,91776.38
2023-03-29T21:09:13.663Z,91783.53
2023-03-29T21:11:40.405Z,91773.63
2023-03-29T21:14:07.177Z,91778.47
2023-03-29T21:16:33.677Z,91777.59
2023-03-29T21:19:00.599Z,91774.00
2023-03-29T21:21:27.354Z,91770.78
2023-03-29T21:23:53.855Z,91772.88
2023-03-29T21:26:20.472Z,91780.22
2023-03-29T21:28:48.690Z,91787.97
2023-03-29T21:31:15.343Z,91774.25
2023-03-29T21:33:41.915Z,91779.28
2023-03-29T21:36:08.716Z,91773.41
2023-03-29T21:38:35.495Z,91773.88
2023-03-29T21:41:02.789Z,91773.22
2023-03-29T21:43:29.632Z,91777.34
2023-03-29T21:45:57.646Z,91778.63
2023-03-29T21:48:24.238Z,91778.38
2023-03-29T21:50:51.165Z,91773.41
2023-03-29T21:53:18.430Z,91773.66
2023-03-29T21:55:45.000Z,91766.44
2023-03-29T21:58:11.590Z,91767.84
2023-03-29T22:00:38.201Z,91772.59
2023-03-29T22:03:04.817Z,91770.75
2023-03-29T22:05:31.825Z,91768.94
2023-03-29T22:07:58.763Z,91769.53
2023-03-29T22:10:25.517Z,91769.50
2023-03-29T22:12:52.624Z,91772.03
2023-03-29T22:15:21.781Z,91763.78
2023-03-29T22:17:48.691Z,91776.63
2023-03-29T22:20:15.404Z,91774.38
2023-03-29T22:22:45.925Z,91763.41
2023-03-29T22:25:12.816Z,91763.50
2023-03-29T22:27:39.516Z,91762.56
2023-03-29T22:30:06.480Z,91768.31
2023-03-29T22:32:33.098Z,91760.59
2023-03-29T22:34:59.731Z,91766.84
2023-03-29T22:37:26.253Z,91774.94
2023-03-29T22:39:54.383Z,91769.75
2023-03-29T22:42:21.155Z,91776.97
2023-03-29T22:44:47.666Z,91768.97
2023-03-29T22:47:14.454Z,91762.88
2023-03-29T22:49:41.489Z,91764.56
2023-03-29T22:52:08.381Z,91757.81
2023-03-29T22:54:34.950Z,91763.56
2023-03-29T22:57:01.650Z,91755.44
2023-03-29T22:59:28.511Z,91766.53
2023-03-29T23:01:55.121Z,91765.00
2023-03-29T23:04:22.325Z,91757.34
2023-03-29T23:06:48.988Z,91760.38
2023-03-29T23:09:16.590Z,91765.66
2023-03-29T23:11:43.288Z,91762.03
2023-03-29T23:14:09.931Z,91767.53
2023-03-29T23:16:36.994Z,91762.94
2023-03-29T23:19:03.663Z,91758.59
2023-03-29T23:21:30.729Z,91763.50
2023-03-29T23:23:57.567Z,91755.28
2023-03-29T23:26:24.138Z,91760.78
2023-03-29T23:28:51.570Z,91758.50
2023-03-29T23:31:18.591Z,91757.94
2023-03-29T23:33:45.639Z,91760.69
2023-03-29T23:36:16.902Z,91771.38
2023-03-29T23:38:44.463Z,91769.31
2023-03-29T23:41:13.071Z,91769.38
2023-03-29T23:43:41.198Z,91760.38
2023-03-29T23:46:12.480Z,91763.03
2023-03-29T23:48:39.270Z,91757.28
2023-03-29T23:51:07.775Z,91750.66
2023-03-29T23:53:34.304Z,91757.31
2023-03-29T23:56:02.141Z,91753.66
2023-03-29T23:58:30.920Z,91756.63
